createdAt,value
2023-04-27T00:01:00.714Z,4.05
2023-04-27T00:03:28.346Z,4.04
2023-04-27T00:05:55.154Z,3.99
2023-04-27T00:08:21.762Z,3.94
2023-04-27T00:10:48.281Z,3.87
2023-04-27T00:13:14.682Z,3.86
2023-04-27T00:15:45.279Z,3.96
2023-04-27T00:18:14.731Z,3.99
2023-04-27T00:20:41.176Z,3.85
2023-04-27T00:23:07.560Z,3.78
2023-04-27T00:25:34.004Z,3.71
2023-04-27T00:28:00.636Z,3.67
2023-04-27T00:30:27.033Z,3.63
2023-04-27T00:32:53.600Z,3.60
2023-04-27T00:35:20.160Z,3.62
2023-04-27T00:37:46.719Z,3.54
2023-04-27T00:40:13.261Z,3.47
2023-04-27T00:42:39.665Z,3.46
2023-04-27T00:45:07.405Z,3.44
2023-04-27T00:47:34.918Z,3.45
2023-04-27T00:50:01.605Z,3.46
2023-04-27T00:52:28.053Z,3.41
2023-04-27T00:54:57.398Z,3.39
2023-04-27T00:57:23.799Z,3.36
2023-04-27T00:59:50.234Z,3.33
2023-04-27T01:02:17.416Z,3.30
2023-04-27T01:04:44.412Z,3.28
2023-04-27T01:07:10.888Z,3.36
2023-04-27T01:09:37.373Z,3.24
2023-04-27T01:12:04.736Z,3.19
2023-04-27T01:14:31.137Z,3.16
2023-04-27T01:16:58.243Z,3.16
2023-04-27T01:19:24.794Z,3.15
2023-04-27T01:21:51.122Z,3.25
2023-04-27T01:24:17.617Z,3.39
2023-04-27T01:26:43.956Z,3.34
2023-04-27T01:29:10.921Z,3.20
2023-04-27T01:31:37.808Z,3.11
2023-04-27T01:34:04.214Z,3.10
2023-04-27T01:36:32.710Z,3.10
2023-04-27T01:38:59.103Z,3.03
2023-04-27T01:41:25.579Z,2.94
2023-04-27T01:43:53.393Z,2.90
2023-04-27T01:46:19.821Z,2.88
2023-04-27T01:48:46.357Z,2.84
2023-04-27T01:51:12.732Z,2.81
2023-04-27T01:53:39.065Z,2.77
2023-04-27T01:56:06.937Z,2.76
2023-04-27T01:58:33.358Z,2.74
2023-04-27T02:00:59.686Z,2.74
2023-04-27T02:03:26.246Z,2.73
2023-04-27T02:05:52.931Z,2.72
2023-04-27T02:08:19.371Z,2.77
2023-04-27T02:10:46.812Z,2.82
2023-04-27T02:13:13.175Z,2.78
2023-04-27T02:15:39.496Z,2.75
2023-04-27T02:18:06.096Z,2.70
2023-04-27T02:20:33.456Z,2.65
2023-04-27T02:23:00.139Z,2.67
2023-04-27T02:25:27.130Z,2.69
2023-04-27T02:27:53.788Z,2.67
2023-04-27T02:30:21.376Z,2.65
2023-04-27T02:32:48.400Z,2.66
2023-04-27T02:35:15.007Z,2.67
2023-04-27T02:37:41.636Z,2.62
2023-04-27T02:40:09.452Z,2.57
2023-04-27T02:42:38.123Z,2.57
2023-04-27T02:45:06.932Z,2.54
2023-04-27T02:47:33.402Z,2.50
2023-04-27T02:50:00.753Z,2.48
2023-04-27T02:52:27.680Z,2.52
2023-04-27T02:54:54.191Z,2.61
2023-04-27T02:57:20.722Z,2.63
2023-04-27T02:59:47.068Z,2.55
2023-04-27T03:02:13.607Z,2.48
2023-04-27T03:04:40.245Z,2.43
2023-04-27T03:07:06.669Z,2.40
2023-04-27T03:09:33.241Z,2.39
2023-04-27T03:14:26.174Z,2.31
2023-04-27T03:16:53.155Z,2.26
2023-04-27T03:19:19.653Z,2.29
2023-04-27T03:21:46.097Z,2.27
2023-04-27T03:24:12.397Z,2.22
2023-04-27T03:26:38.783Z,2.21
2023-04-27T03:29:05.216Z,2.15
2023-04-27T03:31:31.631Z,2.11
2023-04-27T03:33:58.436Z,2.20
2023-04-27T03:36:24.786Z,2.14
2023-04-27T03:38:51.097Z,2.13
2023-04-27T03:41:17.462Z,2.08
2023-04-27T03:43:45.459Z,2.07
2023-04-27T03:46:11.879Z,2.06
2023-04-27T03:48:38.520Z,1.99
2023-04-27T03:51:05.523Z,1.99
2023-04-27T03:53:32.370Z,2.05
2023-04-27T03:55:59.056Z,2.04
2023-04-27T03:58:28.403Z,2.01
2023-04-27T04:00:54.736Z,2.01
2023-04-27T04:03:21.665Z,2.02
2023-04-27T04:05:50.674Z,2.05
2023-04-27T04:08:17.101Z,2.00
2023-04-27T04:10:43.425Z,1.99
2023-04-27T04:13:09.818Z,2.01
2023-04-27T04:15:36.253Z,1.97
2023-04-27T04:18:02.657Z,1.93
2023-04-27T04:20:29.239Z,1.93
2023-04-27T04:22:55.719Z,1.94
2023-04-27T04:25:22.062Z,1.93
2023-04-27T04:27:48.566Z,1.89
2023-04-27T04:30:15.127Z,1.85
2023-04-27T04:32:42.647Z,1.81
2023-04-27T04:35:09.169Z,1.79
2023-04-27T04:37:36.397Z,1.81
2023-04-27T04:40:10.662Z,1.82
2023-04-27T04:42:45.556Z,1.80
2023-04-27T04:45:11.931Z,1.76
2023-04-27T04:47:39.672Z,1.77
2023-04-27T04:50:06.949Z,1.78
2023-04-27T04:52:33.279Z,1.78
2023-04-27T04:54:59.677Z,1.79
2023-04-27T04:57:26.093Z,1.80
2023-04-27T04:59:52.438Z,1.79
2023-04-27T05:02:19.164Z,1.84
2023-04-27T05:04:45.862Z,1.83
2023-04-27T05:07:15.061Z,1.83
2023-04-27T05:09:41.992Z,1.84
2023-04-27T05:12:08.453Z,1.90
2023-04-27T05:14:35.085Z,1.93
2023-04-27T05:17:01.655Z,1.94
2023-04-27T05:19:31.461Z,1.97
2023-04-27T05:21:58.712Z,2.01
2023-04-27T05:24:26.301Z,2.06
2023-04-27T05:26:52.742Z,2.10
2023-04-27T05:29:19.316Z,2.15
2023-04-27T05:31:46.069Z,2.23
2023-04-27T05:34:16.668Z,2.30
2023-04-27T05:36:43.275Z,2.38
2023-04-27T05:39:10.411Z,2.43
2023-04-27T05:41:36.810Z,2.54
2023-04-27T05:44:03.229Z,2.65
2023-04-27T05:46:29.756Z,2.76
2023-04-27T05:48:56.289Z,2.81
2023-04-27T05:51:22.976Z,2.89
2023-04-27T05:53:49.485Z,3.02
2023-04-27T05:56:15.934Z,3.13
2023-04-27T05:58:42.452Z,3.19
2023-04-27T06:01:11.705Z,3.25
2023-04-27T06:03:38.375Z,3.31
2023-04-27T06:06:05.059Z,3.37
2023-04-27T06:08:31.722Z,3.43
2023-04-27T06:10:58.235Z,3.50
2023-04-27T06:13:24.562Z,3.57
2023-04-27T06:15:51.176Z,3.65
2023-04-27T06:18:17.691Z,3.73
2023-04-27T06:20:44.112Z,3.80
2023-04-27T06:23:10.693Z,3.87
2023-04-27T06:25:38.851Z,3.97
2023-04-27T06:28:05.555Z,4.05
2023-04-27T06:30:32.059Z,4.09
2023-04-27T06:32:59.595Z,4.16
2023-04-27T06:35:26.372Z,4.25
2023-04-27T06:37:52.816Z,4.35
2023-04-27T06:40:19.376Z,4.42
2023-04-27T06:42:45.760Z,4.51
2023-04-27T06:45:12.280Z,4.55
2023-04-27T06:47:38.750Z,4.58
2023-04-27T06:50:05.788Z,4.67
2023-04-27T06:52:33.550Z,4.73
2023-04-27T06:54:59.901Z,4.82
2023-04-27T06:57:26.362Z,4.94
2023-04-27T06:59:52.771Z,5.07
2023-04-27T07:02:19.245Z,5.18
2023-04-27T07:04:45.734Z,5.31
2023-04-27T07:07:12.136Z,5.42
2023-04-27T07:09:38.512Z,5.57
2023-04-27T07:12:04.908Z,5.67
2023-04-27T07:14:31.736Z,5.76
2023-04-27T07:16:58.096Z,5.91
2023-04-27T07:19:24.517Z,6.03
2023-04-27T07:21:51.848Z,6.15
2023-04-27T07:24:18.172Z,6.31
2023-04-27T07:26:44.602Z,6.39
2023-04-27T07:29:25.709Z,6.54
2023-04-27T07:31:59.046Z,6.62
2023-04-27T07:34:25.398Z,6.75
2023-04-27T07:36:54.355Z,6.90
2023-04-27T07:39:29.714Z,7.06
2023-04-27T07:41:56.457Z,7.22
2023-04-27T07:44:22.801Z,7.32
2023-04-27T07:46:49.519Z,7.45
2023-04-27T07:49:16.442Z,7.55
2023-04-27T07:51:43.014Z,7.71
2023-04-27T07:54:09.423Z,7.72
2023-04-27T07:56:35.988Z,7.84
2023-04-27T07:59:02.438Z,7.93
2023-04-27T08:01:28.822Z,8.04
2023-04-27T08:03:55.419Z,8.16
2023-04-27T08:06:22.303Z,8.35
2023-04-27T08:08:49.291Z,8.44
2023-04-27T08:11:15.790Z,8.45
2023-04-27T08:13:42.138Z,8.34
2023-04-27T08:16:09.154Z,8.43
2023-04-27T08:18:35.728Z,8.46
2023-04-27T08:21:02.292Z,8.52
2023-04-27T08:23:29.600Z,8.66
2023-04-27T08:25:56.402Z,8.66
2023-04-27T08:28:23.461Z,8.76
2023-04-27T08:30:50.022Z,8.85
2023-04-27T08:33:16.501Z,8.99
2023-04-27T08:35:42.907Z,9.08
2023-04-27T08:38:09.427Z,9.11
2023-04-27T08:40:35.986Z,9.13
2023-04-27T08:43:02.386Z,9.16
2023-04-27T08:45:29.019Z,9.23
2023-04-27T08:47:55.657Z,9.34
2023-04-27T08:50:24.133Z,9.45
2023-04-27T08:52:51.960Z,9.53
2023-04-27T08:55:18.677Z,9.49
2023-04-27T08:57:58.808Z,9.61
2023-04-27T09:00:26.790Z,9.73
2023-04-27T09:02:53.705Z,9.75
2023-04-27T09:05:22.528Z,9.85
2023-04-27T09:08:05.095Z,9.81
2023-04-27T09:10:52.807Z,9.70
2023-04-27T09:13:19.293Z,9.86
2023-04-27T09:15:51.288Z,10.01
2023-04-27T09:18:20.342Z,10.00
2023-04-27T09:20:47.689Z,10.08
2023-04-27T09:23:33.784Z,10.15
2023-04-27T09:26:03.718Z,10.36
2023-04-27T09:28:32.352Z,10.47
2023-04-27T09:31:00.535Z,10.46
2023-04-27T09:33:29.920Z,10.47
2023-04-27T09:35:58.761Z,10.59
2023-04-27T09:38:25.518Z,10.63
2023-04-27T09:40:53.791Z,10.75
2023-04-27T09:43:24.751Z,10.88
2023-04-27T09:45:51.272Z,10.89
2023-04-27T09:48:18.423Z,10.75
2023-04-27T09:50:46.461Z,10.80
2023-04-27T09:53:15.990Z,10.90
2023-04-27T09:56:08.706Z,10.95
2023-04-27T09:59:07.635Z,10.85
2023-04-27T10:01:48.254Z,11.06
2023-04-27T10:04:42.835Z,11.15
2023-04-27T10:07:13.065Z,11.22
2023-04-27T10:09:46.576Z,11.27
2023-04-27T10:12:26.584Z,11.26
2023-04-27T10:14:58.270Z,11.31
2023-04-27T10:17:33.623Z,11.29
2023-04-27T10:20:05.266Z,11.41
2023-04-27T10:22:53.417Z,11.46
2023-04-27T10:25:25.664Z,11.59
2023-04-27T10:27:56.296Z,11.78
2023-04-27T10:30:24.746Z,11.75
2023-04-27T10:32:51.918Z,11.97
2023-04-27T10:35:19.482Z,12.05
2023-04-27T10:37:47.569Z,11.91
2023-04-27T10:40:15.350Z,12.00
2023-04-27T10:42:42.113Z,12.16
2023-04-27T10:45:09.225Z,12.31
2023-04-27T10:47:43.285Z,12.31
2023-04-27T10:50:11.428Z,12.31
2023-04-27T10:52:44.500Z,12.20
2023-04-27T10:55:19.028Z,12.08
2023-04-27T10:57:51.049Z,12.07
2023-04-27T11:00:25.304Z,12.13
2023-04-27T11:02:53.849Z,12.30
2023-04-27T11:05:23.342Z,12.44
2023-04-27T11:07:49.714Z,12.58
2023-04-27T11:10:19.808Z,12.68
2023-04-27T11:12:47.738Z,12.74
2023-04-27T11:15:14.450Z,12.48
2023-04-27T11:17:41.656Z,12.45
2023-04-27T11:20:11.561Z,12.34
2023-04-27T11:22:48.373Z,12.44
2023-04-27T11:25:14.836Z,12.59
2023-04-27T11:27:42.058Z,12.69
2023-04-27T11:30:21.336Z,12.74
2023-04-27T11:32:48.294Z,12.93
2023-04-27T11:35:15.008Z,12.99
2023-04-27T11:37:41.647Z,13.05
2023-04-27T11:40:09.301Z,13.22
2023-04-27T11:42:35.907Z,13.32
2023-04-27T11:45:06.039Z,13.36
2023-04-27T11:47:33.674Z,13.48
2023-04-27T11:50:02.253Z,13.47
2023-04-27T11:52:30.162Z,13.46
2023-04-27T11:54:56.873Z,13.53
2023-04-27T11:57:28.591Z,13.51
2023-04-27T11:59:57.132Z,13.38
2023-04-27T12:02:25.413Z,13.40
2023-04-27T12:04:52.302Z,13.37
2023-04-27T12:07:19.679Z,13.32
2023-04-27T12:09:46.792Z,13.26
2023-04-27T12:12:14.578Z,13.24
2023-04-27T12:14:41.735Z,13.36
2023-04-27T12:17:11.027Z,13.26
2023-04-27T12:19:38.008Z,13.16
2023-04-27T12:22:05.224Z,13.05
2023-04-27T12:24:32.361Z,13.23
2023-04-27T12:26:59.658Z,13.12
2023-04-27T12:29:26.414Z,13.06
2023-04-27T12:31:58.226Z,13.24
2023-04-27T12:34:24.714Z,13.50
2023-04-27T12:36:51.187Z,13.46
2023-04-27T12:39:22.808Z,13.37
2023-04-27T12:41:50.406Z,13.43
2023-04-27T12:44:18.852Z,13.62
2023-04-27T12:46:46.196Z,13.53
2023-04-27T12:49:12.656Z,13.42
2023-04-27T12:51:39.206Z,13.61
2023-04-27T12:54:07.475Z,13.79
2023-04-27T12:56:36.900Z,13.93
2023-04-27T12:59:03.836Z,14.10
2023-04-27T13:01:33.296Z,14.23
2023-04-27T13:04:04.761Z,14.15
2023-04-27T13:06:32.009Z,14.06
2023-04-27T13:08:59.669Z,14.07
2023-04-27T13:11:27.261Z,13.96
2023-04-27T13:13:54.932Z,14.00
2023-04-27T13:16:22.639Z,14.20
2023-04-27T13:18:52.021Z,14.45
2023-04-27T13:21:18.787Z,14.50
2023-04-27T13:23:45.281Z,14.32
2023-04-27T13:26:11.772Z,14.25
2023-04-27T13:28:38.237Z,14.21
2023-04-27T13:31:05.399Z,14.30
2023-04-27T13:33:33.067Z,14.35
2023-04-27T13:36:03.355Z,14.38
2023-04-27T13:38:29.811Z,14.37
2023-04-27T13:40:56.491Z,14.55
2023-04-27T13:43:24.533Z,14.61
2023-04-27T13:45:52.621Z,14.54
2023-04-27T13:48:19.404Z,14.51
2023-04-27T13:50:47.794Z,14.50
2023-04-27T13:53:16.636Z,14.50
2023-04-27T13:55:44.197Z,14.24
2023-04-27T13:58:11.006Z,14.21
2023-04-27T14:00:38.058Z,14.17
2023-04-27T14:03:05.012Z,14.19
2023-04-27T14:05:32.035Z,14.18
2023-04-27T14:07:58.402Z,14.24
2023-04-27T14:10:24.854Z,14.53
2023-04-27T14:12:51.550Z,14.59
2023-04-27T14:15:18.006Z,14.58
2023-04-27T14:17:44.463Z,14.48
2023-04-27T14:20:11.280Z,14.67
2023-04-27T14:22:37.768Z,14.72
2023-04-27T14:25:04.714Z,14.69
2023-04-27T14:27:31.516Z,14.77
2023-04-27T14:29:57.915Z,14.54
2023-04-27T14:32:24.434Z,14.52
2023-04-27T14:34:51.451Z,14.36
2023-04-27T14:37:17.958Z,14.49
2023-04-27T14:39:46.131Z,14.52
2023-04-27T14:42:12.647Z,14.45
2023-04-27T14:44:39.008Z,14.37
2023-04-27T14:47:06.348Z,14.30
2023-04-27T14:49:32.895Z,14.13
2023-04-27T14:52:03.115Z,14.13
2023-04-27T14:54:29.670Z,14.12
2023-04-27T14:56:58.211Z,14.14
2023-04-27T14:59:25.365Z,14.36
2023-04-27T15:01:51.900Z,14.35
2023-04-27T15:04:18.511Z,14.38
2023-04-27T15:06:45.302Z,14.22
2023-04-27T15:09:11.865Z,14.23
2023-04-27T15:11:38.866Z,14.31
2023-04-27T15:14:05.495Z,14.47
2023-04-27T15:16:31.989Z,14.45
2023-04-27T15:18:58.480Z,14.32
2023-04-27T15:21:24.817Z,14.42
2023-04-27T15:23:51.344Z,14.30
2023-04-27T15:26:17.785Z,14.43
2023-04-27T15:28:44.307Z,14.46
2023-04-27T15:31:10.750Z,14.46
2023-04-27T15:33:37.194Z,14.31
2023-04-27T15:36:03.964Z,14.30
2023-04-27T15:38:30.387Z,14.37
2023-04-27T15:40:59.044Z,14.43
2023-04-27T15:43:25.664Z,14.32
2023-04-27T15:46:00.564Z,14.35
2023-04-27T15:48:26.949Z,14.38
2023-04-27T15:50:53.332Z,14.33
2023-04-27T15:53:19.898Z,14.35
2023-04-27T15:55:46.385Z,14.40
2023-04-27T15:58:12.742Z,14.44
2023-04-27T16:00:39.288Z,14.57
2023-04-27T16:03:09.434Z,14.52
2023-04-27T16:05:37.216Z,14.63
2023-04-27T16:08:03.730Z,14.50
2023-04-27T16:10:30.132Z,14.35
2023-04-27T16:12:56.460Z,14.32
2023-04-27T16:15:22.977Z,14.22
2023-04-27T16:17:49.472Z,13.99
2023-04-27T16:20:16.226Z,14.01
2023-04-27T16:22:42.562Z,14.03
2023-04-27T16:25:12.219Z,13.98
2023-04-27T16:27:39.300Z,13.91
2023-04-27T16:30:09.246Z,13.80
2023-04-27T16:32:37.503Z,13.78
2023-04-27T16:35:04.279Z,13.77
2023-04-27T16:37:32.647Z,13.81
2023-04-27T16:40:06.297Z,13.77
2023-04-27T16:42:33.070Z,13.55
2023-04-27T16:45:02.055Z,13.51
2023-04-27T16:47:28.772Z,13.46
2023-04-27T16:49:55.219Z,13.39
2023-04-27T16:52:21.638Z,13.34
2023-04-27T16:54:47.992Z,13.35
2023-04-27T16:57:14.470Z,13.27
2023-04-27T16:59:41.527Z,13.31
2023-04-27T17:02:23.225Z,13.36
2023-04-27T17:04:51.148Z,13.27
2023-04-27T17:07:17.640Z,13.31
2023-04-27T17:09:44.173Z,13.41
2023-04-27T17:12:14.684Z,13.42
2023-04-27T17:14:41.695Z,13.38
2023-04-27T17:17:08.038Z,13.39
2023-04-27T17:19:34.473Z,13.31
2023-04-27T17:22:00.925Z,13.29
2023-04-27T17:24:27.437Z,13.28
2023-04-27T17:26:53.954Z,13.20
2023-04-27T17:29:23.359Z,13.12
2023-04-27T17:31:50.462Z,13.12
2023-04-27T17:34:17.585Z,13.12
2023-04-27T17:36:44.210Z,13.07
2023-04-27T17:39:12.774Z,13.03
2023-04-27T17:41:39.541Z,12.93
2023-04-27T17:44:06.310Z,12.90
2023-04-27T17:46:33.266Z,12.80
2023-04-27T17:48:59.828Z,12.81
2023-04-27T17:51:27.054Z,12.78
2023-04-27T17:53:53.469Z,12.76
2023-04-27T17:56:19.863Z,12.71
2023-04-27T17:58:46.827Z,12.58
2023-04-27T18:01:13.318Z,12.55
2023-04-27T18:03:41.809Z,12.50
2023-04-27T18:06:08.884Z,12.49
2023-04-27T18:08:35.339Z,12.43
2023-04-27T18:11:01.798Z,12.40
2023-04-27T18:13:28.492Z,12.34
2023-04-27T18:15:55.012Z,12.31
2023-04-27T18:18:23.189Z,12.30
2023-04-27T18:20:51.109Z,12.27
2023-04-27T18:23:17.585Z,12.22
2023-04-27T18:25:50.136Z,12.20
2023-04-27T18:28:19.546Z,12.16
2023-04-27T18:30:46.001Z,12.12
2023-04-27T18:33:14.780Z,12.09
2023-04-27T18:35:41.376Z,12.05
2023-04-27T18:38:07.766Z,11.98
2023-04-27T18:40:36.114Z,12.02
2023-04-27T18:43:02.607Z,12.01
2023-04-27T18:45:29.101Z,12.03
2023-04-27T18:47:55.684Z,11.96
2023-04-27T18:50:22.373Z,11.88
2023-04-27T18:52:48.768Z,11.88
2023-04-27T18:55:21.530Z,11.83
2023-04-27T18:57:48.016Z,11.81
2023-04-27T19:00:14.940Z,11.79
2023-04-27T19:02:41.298Z,11.77
2023-04-27T19:05:13.098Z,11.75
2023-04-27T19:07:40.331Z,11.68
2023-04-27T19:10:07.406Z,11.64
2023-04-27T19:12:33.826Z,11.64
2023-04-27T19:15:00.197Z,11.68
2023-04-27T19:17:26.765Z,11.65
2023-04-27T19:19:53.539Z,11.56
2023-04-27T19:22:19.904Z,11.54
2023-04-27T19:24:46.368Z,11.55
2023-04-27T19:27:18.933Z,11.49
2023-04-27T19:29:53.021Z,11.47
2023-04-27T19:32:19.859Z,11.42
2023-04-27T19:34:46.880Z,11.39
2023-04-27T19:37:13.854Z,11.38
2023-04-27T19:39:40.359Z,11.37
2023-04-27T19:42:06.796Z,11.34
2023-04-27T19:44:33.215Z,11.36
2023-04-27T19:46:59.538Z,11.35
2023-04-27T19:49:28.877Z,11.36
2023-04-27T19:51:55.185Z,11.33
2023-04-27T19:54:21.580Z,11.32
2023-04-27T19:56:47.956Z,11.25
2023-04-27T19:59:15.170Z,11.24
2023-04-27T20:01:42.169Z,11.25
2023-04-27T20:04:13.515Z,11.23
2023-04-27T20:06:40.957Z,11.21
2023-04-27T20:09:07.948Z,11.19
2023-04-27T20:11:37.357Z,11.13
2023-04-27T20:14:03.771Z,11.11
2023-04-27T20:16:30.483Z,11.11
2023-04-27T20:18:57.030Z,11.11
2023-04-27T20:21:23.431Z,11.06
2023-04-27T20:23:50.170Z,11.02
2023-04-27T20:26:16.554Z,10.99
2023-04-27T20:28:42.996Z,10.95
2023-04-27T20:31:09.449Z,10.93
2023-04-27T20:33:35.971Z,10.93
2023-04-27T20:36:16.139Z,10.92
2023-04-27T20:38:43.637Z,10.89
2023-04-27T20:41:12.137Z,10.87
2023-04-27T20:43:41.730Z,10.86
2023-04-27T20:46:12.837Z,10.79
2023-04-27T20:48:39.389Z,10.80
2023-04-27T20:51:05.840Z,10.74
2023-04-27T20:53:32.180Z,10.75
2023-04-27T20:55:58.615Z,10.74
2023-04-27T20:58:25.066Z,10.67
2023-04-27T21:00:51.549Z,10.67
2023-04-27T21:03:17.994Z,10.63
2023-04-27T21:05:49.046Z,10.62
2023-04-27T21:08:16.761Z,10.62
2023-04-27T21:10:44.018Z,10.62
2023-04-27T21:13:10.406Z,10.56
2023-04-27T21:15:37.786Z,10.52
2023-04-27T21:20:33.259Z,10.50
2023-04-27T21:22:59.663Z,10.51
2023-04-27T21:25:26.048Z,10.43
2023-04-27T21:27:52.548Z,10.39
2023-04-27T21:30:18.890Z,10.36
2023-04-27T21:32:45.600Z,10.35
2023-04-27T21:35:12.053Z,10.34
2023-04-27T21:37:38.585Z,10.33
2023-04-27T21:40:06.519Z,10.33
2023-04-27T21:42:33.078Z,10.29
2023-04-27T21:44:59.563Z,10.27
2023-04-27T21:47:26.401Z,10.26
2023-04-27T21:49:54.021Z,10.21
2023-04-27T21:52:21.457Z,10.20
2023-04-27T21:54:47.859Z,10.16
2023-04-27T21:57:14.184Z,10.12
2023-04-27T21:59:40.636Z,10.07
2023-04-27T22:02:08.066Z,10.04
2023-04-27T22:04:36.080Z,9.99
2023-04-27T22:07:02.633Z,9.98
2023-04-27T22:09:29.156Z,9.97
2023-04-27T22:11:55.751Z,9.97
2023-04-27T22:14:22.250Z,9.94
2023-04-27T22:16:49.491Z,9.90
2023-04-27T22:19:17.845Z,9.91
2023-04-27T22:21:44.836Z,9.91
2023-04-27T22:24:11.275Z,9.90
2023-04-27T22:26:37.668Z,9.88
2023-04-27T22:29:04.029Z,9.89
2023-04-27T22:31:31.784Z,9.87
2023-04-27T22:33:58.451Z,9.87
2023-04-27T22:36:24.971Z,9.87
2023-04-27T22:38:51.499Z,9.87
2023-04-27T22:41:19.149Z,9.88
2023-04-27T22:43:45.483Z,9.85
2023-04-27T22:46:11.814Z,9.87
2023-04-27T22:48:38.199Z,9.88
2023-04-27T22:51:08.849Z,9.85
2023-04-27T22:53:35.322Z,9.83
2023-04-27T22:56:01.690Z,9.84
2023-04-27T22:58:28.075Z,9.84
2023-04-27T23:00:54.482Z,9.84
2023-04-27T23:03:21.021Z,9.83
2023-04-27T23:05:47.586Z,9.83
2023-04-27T23:08:16.897Z,9.81
2023-04-27T23:10:43.232Z,9.79
2023-04-27T23:13:12.798Z,9.79
2023-04-27T23:15:41.908Z,9.76
2023-04-27T23:18:08.238Z,9.75
2023-04-27T23:20:34.747Z,9.74
2023-04-27T23:23:05.256Z,9.71
2023-04-27T23:25:32.964Z,9.67
2023-04-27T23:27:59.387Z,9.66
2023-04-27T23:30:25.833Z,9.63
2023-04-27T23:32:52.419Z,9.58
2023-04-27T23:35:18.937Z,9.63
2023-04-27T23:37:45.292Z,9.58
2023-04-27T23:40:12.173Z,9.56
2023-04-27T23:42:38.580Z,9.56
2023-04-27T23:45:05.370Z,9.53
2023-04-27T23:47:33.791Z,9.50
2023-04-27T23:50:02.130Z,9.49
2023-04-27T23:52:28.495Z,9.45
2023-04-27T23:54:54.931Z,9.46
2023-04-27T23:57:21.395Z,9.43
2023-04-27T23:59:47.791Z,9.43
